sensor_id;sensor_type;location;lat;lon;timestamp;P1;durP1;ratioP1;P2;durP2;ratioP2
50733;SDS011;36701;51.798;19.474;2023-04-15T02:00:43;8.75;;;5.37;;
50733;SDS011;36701;51.798;19.474;2023-04-15T02:03:10;7.80;;;5.82;;
50733;SDS011;36701;51.798;19.474;2023-04-15T02:05:36;7.12;;;5.07;;
50733;SDS011;36701;51.798;19.474;2023-04-15T02:08:03;8.15;;;5.45;;
50733;SDS011;36701;51.798;19.474;2023-04-15T02:10:29;6.68;;;5.32;;
50733;SDS011;36701;51.798;19.474;2023-04-15T02:12:56;11.68;;;5.72;;
50733;SDS011;36701;51.798;19.474;2023-04-15T02:15:22;8.15;;;5.85;;
50733;SDS011;36701;51.798;19.474;2023-04-15T02:17:49;11.32;;;6.15;;
50733;SDS011;36701;51.798;19.474;2023-04-15T02:20:17;11.80;;;7.30;;
50733;SDS011;36701;51.798;19.474;2023-04-15T02:22:44;10.48;;;6.35;;
50733;SDS011;36701;51.798;19.474;2023-04-15T02:25:10;11.73;;;6.05;;
50733;SDS011;36701;51.798;19.474;2023-04-15T02:27:37;9.02;;;5.80;;
50733;SDS011;36701;51.798;19.474;2023-04-15T02:30:03;7.00;;;5.47;;
50733;SDS011;36701;51.798;19.474;2023-04-15T02:32:29;10.55;;;6.22;;
50733;SDS011;36701;51.798;19.474;2023-04-15T02:34:55;7.65;;;5.70;;
50733;SDS011;36701;51.798;19.474;2023-04-15T02:37:22;8.50;;;5.75;;
50733;SDS011;36701;51.798;19.474;2023-04-15T02:39:49;8.07;;;5.93;;
50733;SDS011;36701;51.798;19.474;2023-04-15T02:42:15;8.07;;;5.68;;
50733;SDS011;36701;51.798;19.474;2023-04-15T02:44:41;9.90;;;7.00;;
50733;SDS011;36701;51.798;19.474;2023-04-15T02:47:08;9.60;;;6.57;;
50733;SDS011;36701;51.798;19.474;2023-04-15T02:49:36;8.20;;;6.78;;
50733;SDS011;36701;51.798;19.474;2023-04-15T02:52:02;8.00;;;6.30;;
50733;SDS011;36701;51.798;19.474;2023-04-15T02:54:29;8.65;;;6.50;;
50733;SDS011;36701;51.798;19.474;2023-04-15T02:56:58;10.32;;;6.95;;
50733;SDS011;36701;51.798;19.474;2023-04-15T02:59:24;8.75;;;7.10;;
50733;SDS011;36701;51.798;19.474;2023-04-15T03:01:50;10.20;;;7.57;;
50733;SDS011;36701;51.798;19.474;2023-04-15T03:04:22;11.27;;;6.72;;
50733;SDS011;36701;51.798;19.474;2023-04-15T03:06:55;8.52;;;6.80;;
50733;SDS011;36701;51.798;19.474;2023-04-15T03:09:22;10.32;;;7.32;;
50733;SDS011;36701;51.798;19.474;2023-04-15T03:11:48;7.75;;;6.28;;
50733;SDS011;36701;51.798;19.474;2023-04-15T03:14:21;8.52;;;7.10;;
50733;SDS011;36701;51.798;19.474;2023-04-15T03:16:48;8.57;;;6.53;;
50733;SDS011;36701;51.798;19.474;2023-04-15T03:19:15;7.18;;;6.07;;
50733;SDS011;36701;51.798;19.474;2023-04-15T03:21:42;13.35;;;7.93;;
50733;SDS011;36701;51.798;19.474;2023-04-15T03:24:08;7.72;;;6.62;;
50733;SDS011;36701;51.798;19.474;2023-04-15T03:26:34;8.20;;;7.12;;
50733;SDS011;36701;51.798;19.474;2023-04-15T03:29:01;12.07;;;6.53;;
50733;SDS011;36701;51.798;19.474;2023-04-15T03:31:27;10.52;;;6.65;;
50733;SDS011;36701;51.798;19.474;2023-04-15T03:33:53;9.32;;;6.32;;
50733;SDS011;36701;51.798;19.474;2023-04-15T03:36:19;8.30;;;6.65;;
50733;SDS011;36701;51.798;19.474;2023-04-15T03:38:46;9.35;;;6.60;;
50733;SDS011;36701;51.798;19.474;2023-04-15T03:41:19;9.00;;;6.40;;
50733;SDS011;36701;51.798;19.474;2023-04-15T03:43:44;9.93;;;6.55;;
50733;SDS011;36701;51.798;19.474;2023-04-15T03:46:11;7.75;;;5.95;;
50733;SDS011;36701;51.798;19.474;2023-04-15T03:48:37;8.35;;;6.72;;
50733;SDS011;36701;51.798;19.474;2023-04-15T03:51:03;8.35;;;6.40;;
50733;SDS011;36701;51.798;19.474;2023-04-15T03:53:29;10.57;;;6.53;;
50733;SDS011;36701;51.798;19.474;2023-04-15T03:55:55;10.52;;;6.37;;
50733;SDS011;36701;51.798;19.474;2023-04-15T03:58:21;12.85;;;6.28;;
50733;SDS011;36701;51.798;19.474;2023-04-15T04:00:48;8.73;;;6.10;;
50733;SDS011;36701;51.798;19.474;2023-04-15T04:03:14;7.57;;;5.90;;
50733;SDS011;36701;51.798;19.474;2023-04-15T04:05:40;8.43;;;6.50;;
50733;SDS011;36701;51.798;19.474;2023-04-15T04:08:06;9.77;;;6.43;;
50733;SDS011;36701;51.798;19.474;2023-04-15T04:10:33;9.68;;;6.93;;
50733;SDS011;36701;51.798;19.474;2023-04-15T04:12:59;8.55;;;6.97;;
50733;SDS011;36701;51.798;19.474;2023-04-15T04:15:26;8.40;;;6.07;;
50733;SDS011;36701;51.798;19.474;2023-04-15T04:17:52;9.95;;;6.97;;
50733;SDS011;36701;51.798;19.474;2023-04-15T04:20:18;9.00;;;6.65;;
50733;SDS011;36701;51.798;19.474;2023-04-15T04:22:44;8.68;;;6.55;;
50733;SDS011;36701;51.798;19.474;2023-04-15T04:25:11;10.93;;;7.18;;
50733;SDS011;36701;51.798;19.474;2023-04-15T04:27:37;7.32;;;6.20;;
50733;SDS011;36701;51.798;19.474;2023-04-15T04:30:03;8.68;;;6.32;;
50733;SDS011;36701;51.798;19.474;2023-04-15T04:32:30;9.05;;;7.22;;
50733;SDS011;36701;51.798;19.474;2023-04-15T04:34:56;10.68;;;6.95;;
50733;SDS011;36701;51.798;19.474;2023-04-15T04:37:22;10.52;;;7.55;;
50733;SDS011;36701;51.798;19.474;2023-04-15T04:39:49;7.30;;;5.93;;
50733;SDS011;36701;51.798;19.474;2023-04-15T04:42:15;10.15;;;6.97;;
50733;SDS011;36701;51.798;19.474;2023-04-15T04:44:41;7.10;;;5.72;;
50733;SDS011;36701;51.798;19.474;2023-04-15T04:47:08;9.00;;;6.10;;
50733;SDS011;36701;51.798;19.474;2023-04-15T04:49:34;7.80;;;5.75;;
50733;SDS011;36701;51.798;19.474;2023-04-15T04:52:01;7.40;;;5.87;;
50733;SDS011;36701;51.798;19.474;2023-04-15T04:54:27;8.57;;;6.12;;
50733;SDS011;36701;51.798;19.474;2023-04-15T04:56:55;7.03;;;6.10;;
50733;SDS011;36701;51.798;19.474;2023-04-15T04:59:22;8.75;;;5.55;;
50733;SDS011;36701;51.798;19.474;2023-04-15T05:01:49;8.15;;;5.70;;
50733;SDS011;36701;51.798;19.474;2023-04-15T05:04:15;7.60;;;6.10;;
50733;SDS011;36701;51.798;19.474;2023-04-15T05:06:41;8.27;;;6.30;;
50733;SDS011;36701;51.798;19.474;2023-04-15T05:09:07;7.10;;;5.55;;
50733;SDS011;36701;51.798;19.474;2023-04-15T05:11:33;10.63;;;5.57;;
50733;SDS011;36701;51.798;19.474;2023-04-15T05:14:00;6.93;;;5.32;;
50733;SDS011;36701;51.798;19.474;2023-04-15T05:16:27;8.25;;;5.30;;
50733;SDS011;36701;51.798;19.474;2023-04-15T05:18:53;9.05;;;6.32;;
50733;SDS011;36701;51.798;19.474;2023-04-15T05:21:19;8.23;;;6.05;;
50733;SDS011;36701;51.798;19.474;2023-04-15T05:23:46;7.57;;;5.60;;
50733;SDS011;36701;51.798;19.474;2023-04-15T05:26:12;8.20;;;5.70;;
50733;SDS011;36701;51.798;19.474;2023-04-15T05:28:38;12.85;;;6.28;;
50733;SDS011;36701;51.798;19.474;2023-04-15T05:31:04;12.63;;;6.32;;
50733;SDS011;36701;51.798;19.474;2023-04-15T05:33:31;7.25;;;5.03;;
50733;SDS011;36701;51.798;19.474;2023-04-15T05:35:56;7.87;;;5.90;;
50733;SDS011;36701;51.798;19.474;2023-04-15T05:38:23;7.32;;;5.50;;
50733;SDS011;36701;51.798;19.474;2023-04-15T05:40:49;5.55;;;5.05;;
50733;SDS011;36701;51.798;19.474;2023-04-15T05:43:15;5.93;;;5.00;;
50733;SDS011;36701;51.798;19.474;2023-04-15T05:45:42;9.90;;;4.78;;
50733;SDS011;36701;51.798;19.474;2023-04-15T05:48:08;5.10;;;4.50;;
50733;SDS011;36701;51.798;19.474;2023-04-15T05:50:34;5.97;;;5.28;;
50733;SDS011;36701;51.798;19.474;2023-04-15T05:53:01;5.35;;;4.43;;
50733;SDS011;36701;51.798;19.474;2023-04-15T05:55:27;6.35;;;5.15;;
50733;SDS011;36701;51.798;19.474;2023-04-15T05:57:53;5.60;;;5.10;;
50733;SDS011;36701;51.798;19.474;2023-04-15T06:00:19;6.53;;;5.05;;
50733;SDS011;36701;51.798;19.474;2023-04-15T06:02:46;8.80;;;4.60;;
50733;SDS011;36701;51.798;19.474;2023-04-15T06:05:12;5.97;;;5.15;;
50733;SDS011;36701;51.798;19.474;2023-04-15T06:07:38;6.72;;;4.85;;
50733;SDS011;36701;51.798;19.474;2023-04-15T06:10:04;5.37;;;4.85;;
50733;SDS011;36701;51.798;19.474;2023-04-15T06:12:31;5.80;;;4.85;;
50733;SDS011;36701;51.798;19.474;2023-04-15T06:14:57;6.32;;;5.12;;
50733;SDS011;36701;51.798;19.474;2023-04-15T06:17:23;5.95;;;4.05;;
50733;SDS011;36701;51.798;19.474;2023-04-15T06:19:50;4.97;;;4.50;;
50733;SDS011;36701;51.798;19.474;2023-04-15T06:22:20;5.78;;;4.97;;
50733;SDS011;36701;51.798;19.474;2023-04-15T06:24:48;5.50;;;4.60;;
50733;SDS011;36701;51.798;19.474;2023-04-15T06:27:17;5.20;;;4.20;;
50733;SDS011;36701;51.798;19.474;2023-04-15T06:29:43;5.65;;;4.70;;
50733;SDS011;36701;51.798;19.474;2023-04-15T06:32:10;5.65;;;4.60;;
50733;SDS011;36701;51.798;19.474;2023-04-15T06:34:36;6.43;;;4.80;;
50733;SDS011;36701;51.798;19.474;2023-04-15T06:37:02;6.20;;;4.93;;
50733;SDS011;36701;51.798;19.474;2023-04-15T06:39:29;6.15;;;4.68;;
50733;SDS011;36701;51.798;19.474;2023-04-15T06:41:55;7.68;;;5.03;;
50733;SDS011;36701;51.798;19.474;2023-04-15T06:44:21;9.98;;;4.75;;
50733;SDS011;36701;51.798;19.474;2023-04-15T06:46:48;7.35;;;5.20;;
50733;SDS011;36701;51.798;19.474;2023-04-15T06:51:46;6.57;;;5.55;;
50733;SDS011;36701;51.798;19.474;2023-04-15T06:54:12;7.07;;;5.18;;
50733;SDS011;36701;51.798;19.474;2023-04-15T06:56:39;9.10;;;5.10;;
50733;SDS011;36701;51.798;19.474;2023-04-15T06:59:05;5.22;;;4.65;;
50733;SDS011;36701;51.798;19.474;2023-04-15T07:01:32;7.65;;;5.85;;
50733;SDS011;36701;51.798;19.474;2023-04-15T07:03:57;10.07;;;5.80;;
50733;SDS011;36701;51.798;19.474;2023-04-15T07:06:24;8.10;;;5.82;;
50733;SDS011;36701;51.798;19.474;2023-04-15T07:08:50;10.00;;;4.82;;
50733;SDS011;36701;51.798;19.474;2023-04-15T07:11:17;10.57;;;5.05;;
50733;SDS011;36701;51.798;19.474;2023-04-15T07:13:43;5.37;;;4.87;;
50733;SDS011;36701;51.798;19.474;2023-04-15T07:16:09;8.80;;;5.72;;
50733;SDS011;36701;51.798;19.474;2023-04-15T07:18:35;5.87;;;5.20;;
50733;SDS011;36701;51.798;19.474;2023-04-15T07:21:01;11.27;;;5.80;;
50733;SDS011;36701;51.798;19.474;2023-04-15T07:23:27;7.00;;;5.35;;
50733;SDS011;36701;51.798;19.474;2023-04-15T07:25:54;6.45;;;5.32;;
50733;SDS011;36701;51.798;19.474;2023-04-15T07:28:20;7.15;;;5.12;;
50733;SDS011;36701;51.798;19.474;2023-04-15T07:30:47;7.25;;;5.28;;
50733;SDS011;36701;51.798;19.474;2023-04-15T07:33:13;8.15;;;4.97;;
50733;SDS011;36701;51.798;19.474;2023-04-15T07:35:39;5.97;;;5.15;;
50733;SDS011;36701;51.798;19.474;2023-04-15T07:38:05;7.37;;;4.80;;
50733;SDS011;36701;51.798;19.474;2023-04-15T07:40:31;6.50;;;4.97;;
50733;SDS011;36701;51.798;19.474;2023-04-15T07:42:57;5.45;;;4.82;;
50733;SDS011;36701;51.798;19.474;2023-04-15T07:45:24;5.53;;;4.75;;
50733;SDS011;36701;51.798;19.474;2023-04-15T07:47:50;8.10;;;5.28;;
50733;SDS011;36701;51.798;19.474;2023-04-15T07:50:16;6.72;;;5.28;;
50733;SDS011;36701;51.798;19.474;2023-04-15T07:52:43;7.95;;;5.60;;
50733;SDS011;36701;51.798;19.474;2023-04-15T07:55:09;7.93;;;5.60;;
50733;SDS011;36701;51.798;19.474;2023-04-15T07:57:35;8.82;;;5.65;;
50733;SDS011;36701;51.798;19.474;2023-04-15T08:00:02;10.00;;;6.97;;
50733;SDS011;36701;51.798;19.474;2023-04-15T08:02:38;10.30;;;7.22;;
50733;SDS011;36701;51.798;19.474;2023-04-15T08:05:05;11.35;;;6.72;;
50733;SDS011;36701;51.798;19.474;2023-04-15T08:07:32;8.48;;;6.85;;
50733;SDS011;36701;51.798;19.474;2023-04-15T08:09:58;8.50;;;6.62;;
50733;SDS011;36701;51.798;19.474;2023-04-15T08:12:24;10.05;;;6.85;;
50733;SDS011;36701;51.798;19.474;2023-04-15T08:14:51;11.02;;;7.20;;
50733;SDS011;36701;51.798;19.474;2023-04-15T08:17:17;11.18;;;7.05;;
50733;SDS011;36701;51.798;19.474;2023-04-15T08:19:43;12.45;;;7.60;;
50733;SDS011;36701;51.798;19.474;2023-04-15T08:22:09;10.85;;;7.43;;
50733;SDS011;36701;51.798;19.474;2023-04-15T08:24:37;11.32;;;7.82;;
50733;SDS011;36701;51.798;19.474;2023-04-15T08:27:07;14.87;;;7.57;;
50733;SDS011;36701;51.798;19.474;2023-04-15T08:29:33;11.60;;;8.60;;
50733;SDS011;36701;51.798;19.474;2023-04-15T08:31:59;14.07;;;8.05;;
50733;SDS011;36701;51.798;19.474;2023-04-15T08:34:29;11.43;;;7.87;;
50733;SDS011;36701;51.798;19.474;2023-04-15T08:36:55;12.30;;;7.80;;
50733;SDS011;36701;51.798;19.474;2023-04-15T08:39:21;11.95;;;7.70;;
50733;SDS011;36701;51.798;19.474;2023-04-15T08:41:51;12.88;;;8.15;;
50733;SDS011;36701;51.798;19.474;2023-04-15T08:44:21;12.85;;;7.05;;
50733;SDS011;36701;51.798;19.474;2023-04-15T08:46:48;13.62;;;9.27;;
50733;SDS011;36701;51.798;19.474;2023-04-15T08:49:15;11.40;;;8.38;;
50733;SDS011;36701;51.798;19.474;2023-04-15T08:51:42;14.65;;;8.50;;
50733;SDS011;36701;51.798;19.474;2023-04-15T08:54:08;10.90;;;8.13;;
50733;SDS011;36701;51.798;19.474;2023-04-15T08:56:35;9.60;;;7.87;;
50733;SDS011;36701;51.798;19.474;2023-04-15T08:59:02;12.02;;;7.65;;
50733;SDS011;36701;51.798;19.474;2023-04-15T09:01:28;9.25;;;7.15;;
50733;SDS011;36701;51.798;19.474;2023-04-15T09:03:55;10.18;;;7.03;;
50733;SDS011;36701;51.798;19.474;2023-04-15T09:06:21;12.63;;;6.53;;
50733;SDS011;36701;51.798;19.474;2023-04-15T09:08:48;9.52;;;6.85;;
50733;SDS011;36701;51.798;19.474;2023-04-15T09:11:15;13.40;;;9.18;;
50733;SDS011;36701;51.798;19.474;2023-04-15T09:13:43;9.23;;;6.80;;
50733;SDS011;36701;51.798;19.474;2023-04-15T09:16:09;13.43;;;6.57;;
50733;SDS011;36701;51.798;19.474;2023-04-15T09:18:37;8.05;;;6.22;;
50733;SDS011;36701;51.798;19.474;2023-04-15T09:21:10;7.90;;;5.95;;
50733;SDS011;36701;51.798;19.474;2023-04-15T09:23:39;9.73;;;6.55;;
50733;SDS011;36701;51.798;19.474;2023-04-15T09:26:06;6.80;;;6.10;;
50733;SDS011;36701;51.798;19.474;2023-04-15T09:28:33;8.10;;;6.93;;
50733;SDS011;36701;51.798;19.474;2023-04-15T09:31:06;9.38;;;6.82;;
50733;SDS011;36701;51.798;19.474;2023-04-15T09:33:33;8.40;;;6.40;;
50733;SDS011;36701;51.798;19.474;2023-04-15T09:36:03;8.63;;;6.35;;
50733;SDS011;36701;51.798;19.474;2023-04-15T09:38:31;7.35;;;5.28;;
50733;SDS011;36701;51.798;19.474;2023-04-15T09:40:57;7.80;;;5.95;;
50733;SDS011;36701;51.798;19.474;2023-04-15T09:43:39;8.90;;;5.53;;
50733;SDS011;36701;51.798;19.474;2023-04-15T09:46:05;9.07;;;6.68;;
50733;SDS011;36701;51.798;19.474;2023-04-15T09:48:32;10.07;;;6.53;;
50733;SDS011;36701;51.798;19.474;2023-04-15T09:50:58;7.82;;;5.55;;
50733;SDS011;36701;51.798;19.474;2023-04-15T09:53:27;7.18;;;5.93;;
50733;SDS011;36701;51.798;19.474;2023-04-15T09:55:54;7.60;;;5.93;;
50733;SDS011;36701;51.798;19.474;2023-04-15T09:58:22;8.35;;;5.97;;
50733;SDS011;36701;51.798;19.474;2023-04-15T10:00:49;7.85;;;5.75;;
50733;SDS011;36701;51.798;19.474;2023-04-15T10:03:18;7.15;;;4.95;;
50733;SDS011;36701;51.798;19.474;2023-04-15T10:05:44;8.45;;;5.25;;
50733;SDS011;36701;51.798;19.474;2023-04-15T10:08:11;7.20;;;5.05;;
50733;SDS011;36701;51.798;19.474;2023-04-15T10:10:37;9.18;;;5.82;;
50733;SDS011;36701;51.798;19.474;2023-04-15T10:13:04;6.45;;;5.32;;
50733;SDS011;36701;51.798;19.474;2023-04-15T10:15:31;8.48;;;6.80;;
50733;SDS011;36701;51.798;19.474;2023-04-15T10:17:58;7.68;;;5.30;;
50733;SDS011;36701;51.798;19.474;2023-04-15T10:20:25;6.40;;;5.60;;
50733;SDS011;36701;51.798;19.474;2023-04-15T10:22:52;8.77;;;5.40;;
50733;SDS011;36701;51.798;19.474;2023-04-15T10:25:18;7.32;;;5.78;;
50733;SDS011;36701;51.798;19.474;2023-04-15T10:27:45;9.63;;;5.45;;
50733;SDS011;36701;51.798;19.474;2023-04-15T10:30:13;8.50;;;5.70;;
50733;SDS011;36701;51.798;19.474;2023-04-15T10:32:40;7.68;;;6.03;;
50733;SDS011;36701;51.798;19.474;2023-04-15T10:35:07;10.55;;;5.47;;
50733;SDS011;36701;51.798;19.474;2023-04-15T10:37:35;7.25;;;5.30;;
50733;SDS011;36701;51.798;19.474;2023-04-15T10:42:58;7.90;;;5.20;;
50733;SDS011;36701;51.798;19.474;2023-04-15T10:45:26;7.95;;;6.10;;
50733;SDS011;36701;51.798;19.474;2023-04-15T10:47:54;6.70;;;5.37;;
50733;SDS011;36701;51.798;19.474;2023-04-15T10:50:20;8.68;;;5.10;;
50733;SDS011;36701;51.798;19.474;2023-04-15T10:52:49;4.93;;;4.53;;
50733;SDS011;36701;51.798;19.474;2023-04-15T10:55:19;4.03;;;3.62;;
50733;SDS011;36701;51.798;19.474;2023-04-15T10:57:46;6.03;;;4.35;;
50733;SDS011;36701;51.798;19.474;2023-04-15T11:03:38;5.35;;;4.72;;
50733;SDS011;36701;51.798;19.474;2023-04-15T11:06:06;4.97;;;4.45;;
50733;SDS011;36701;51.798;19.474;2023-04-15T11:11:17;6.87;;;4.37;;
50733;SDS011;36701;51.798;19.474;2023-04-15T11:13:47;8.60;;;5.15;;
50733;SDS011;36701;51.798;19.474;2023-04-15T11:16:13;6.32;;;4.60;;
50733;SDS011;36701;51.798;19.474;2023-04-15T11:18:39;6.32;;;3.95;;
50733;SDS011;36701;51.798;19.474;2023-04-15T11:21:06;9.13;;;4.60;;
50733;SDS011;36701;51.798;19.474;2023-04-15T11:26:00;9.02;;;4.82;;
50733;SDS011;36701;51.798;19.474;2023-04-15T11:28:27;7.25;;;4.12;;
50733;SDS011;36701;51.798;19.474;2023-04-15T11:30:54;4.80;;;4.30;;
50733;SDS011;36701;51.798;19.474;2023-04-15T11:33:21;5.90;;;4.87;;
50733;SDS011;36701;51.798;19.474;2023-04-15T11:35:47;5.10;;;4.50;;
50733;SDS011;36701;51.798;19.474;2023-04-15T11:38:13;4.97;;;4.50;;
50733;SDS011;36701;51.798;19.474;2023-04-15T11:40:41;5.93;;;4.75;;
50733;SDS011;36701;51.798;19.474;2023-04-15T11:43:08;7.03;;;5.35;;
50733;SDS011;36701;51.798;19.474;2023-04-15T11:45:35;5.07;;;4.10;;
50733;SDS011;36701;51.798;19.474;2023-04-15T11:48:08;6.53;;;4.43;;
50733;SDS011;36701;51.798;19.474;2023-04-15T11:50:35;4.97;;;4.35;;
50733;SDS011;36701;51.798;19.474;2023-04-15T11:53:03;11.57;;;5.15;;
50733;SDS011;36701;51.798;19.474;2023-04-15T11:55:30;6.45;;;4.15;;
50733;SDS011;36701;51.798;19.474;2023-04-15T11:58:12;4.62;;;4.07;;
50733;SDS011;36701;51.798;19.474;2023-04-15T12:00:42;7.80;;;4.82;;
50733;SDS011;36701;51.798;19.474;2023-04-15T12:03:13;7.53;;;3.45;;
50733;SDS011;36701;51.798;19.474;2023-04-15T12:11:13;9.48;;;2.47;;
50733;SDS011;36701;51.798;19.474;2023-04-15T12:13:43;2.90;;;2.60;;
50733;SDS011;36701;51.798;19.474;2023-04-15T12:16:10;3.22;;;2.20;;
50733;SDS011;36701;51.798;19.474;2023-04-15T12:18:37;5.28;;;2.60;;
50733;SDS011;36701;51.798;19.474;2023-04-15T12:21:08;4.07;;;2.78;;
50733;SDS011;36701;51.798;19.474;2023-04-15T12:23:36;2.00;;;1.90;;
50733;SDS011;36701;51.798;19.474;2023-04-15T12:26:04;3.78;;;2.67;;
50733;SDS011;36701;51.798;19.474;2023-04-15T12:28:35;9.07;;;2.60;;
50733;SDS011;36701;51.798;19.474;2023-04-15T12:31:08;8.02;;;2.72;;
50733;SDS011;36701;51.798;19.474;2023-04-15T12:33:34;2.70;;;2.50;;
50733;SDS011;36701;51.798;19.474;2023-04-15T12:36:01;5.05;;;2.95;;
50733;SDS011;36701;51.798;19.474;2023-04-15T12:38:28;4.43;;;3.03;;
50733;SDS011;36701;51.798;19.474;2023-04-15T12:40:55;2.50;;;2.30;;
50733;SDS011;36701;51.798;19.474;2023-04-15T12:43:21;2.40;;;2.20;;
50733;SDS011;36701;51.798;19.474;2023-04-15T12:45:47;3.17;;;2.87;;
50733;SDS011;36701;51.798;19.474;2023-04-15T12:48:13;5.70;;;3.00;;
50733;SDS011;36701;51.798;19.474;2023-04-15T12:50:39;5.22;;;2.65;;
50733;SDS011;36701;51.798;19.474;2023-04-15T12:53:05;2.83;;;2.37;;
50733;SDS011;36701;51.798;19.474;2023-04-15T12:55:32;3.90;;;2.97;;
50733;SDS011;36701;51.798;19.474;2023-04-15T12:57:58;2.67;;;2.47;;
50733;SDS011;36701;51.798;19.474;2023-04-15T13:00:24;5.62;;;3.55;;
50733;SDS011;36701;51.798;19.474;2023-04-15T13:02:50;2.90;;;2.53;;
50733;SDS011;36701;51.798;19.474;2023-04-15T13:05:16;5.57;;;2.55;;
50733;SDS011;36701;51.798;19.474;2023-04-15T13:07:42;5.95;;;3.08;;
50733;SDS011;36701;51.798;19.474;2023-04-15T13:10:09;3.83;;;2.45;;
50733;SDS011;36701;51.798;19.474;2023-04-15T13:12:35;6.62;;;3.03;;
50733;SDS011;36701;51.798;19.474;2023-04-15T13:15:02;5.50;;;3.70;;
50733;SDS011;36701;51.798;19.474;2023-04-15T13:17:29;5.90;;;3.33;;
50733;SDS011;36701;51.798;19.474;2023-04-15T13:19:55;3.95;;;3.65;;
50733;SDS011;36701;51.798;19.474;2023-04-15T13:22:21;5.00;;;3.00;;
50733;SDS011;36701;51.798;19.474;2023-04-15T13:24:48;3.87;;;2.70;;
50733;SDS011;36701;51.798;19.474;2023-04-15T13:27:14;2.60;;;2.40;;
50733;SDS011;36701;51.798;19.474;2023-04-15T13:29:40;8.75;;;2.60;;
50733;SDS011;36701;51.798;19.474;2023-04-15T13:32:07;2.83;;;2.62;;
50733;SDS011;36701;51.798;19.474;2023-04-15T13:34:33;10.38;;;4.35;;
50733;SDS011;36701;51.798;19.474;2023-04-15T13:37:04;4.37;;;3.35;;
50733;SDS011;36701;51.798;19.474;2023-04-15T13:39:31;4.93;;;3.95;;
50733;SDS011;36701;51.798;19.474;2023-04-15T13:41:57;7.85;;;4.32;;
50733;SDS011;36701;51.798;19.474;2023-04-15T13:44:23;7.30;;;3.97;;
50733;SDS011;36701;51.798;19.474;2023-04-15T13:46:50;8.18;;;3.85;;
50733;SDS011;36701;51.798;19.474;2023-04-15T13:49:16;5.32;;;3.97;;
50733;SDS011;36701;51.798;19.474;2023-04-15T13:51:42;7.68;;;4.00;;
50733;SDS011;36701;51.798;19.474;2023-04-15T13:54:09;4.85;;;3.53;;
50733;SDS011;36701;51.798;19.474;2023-04-15T13:56:35;5.40;;;3.90;;
50733;SDS011;36701;51.798;19.474;2023-04-15T13:59:01;7.35;;;4.03;;
50733;SDS011;36701;51.798;19.474;2023-04-15T14:01:28;7.40;;;4.45;;
50733;SDS011;36701;51.798;19.474;2023-04-15T14:03:54;7.62;;;5.20;;
50733;SDS011;36701;51.798;19.474;2023-04-15T14:06:21;6.35;;;4.40;;
50733;SDS011;36701;51.798;19.474;2023-04-15T14:08:53;10.57;;;5.00;;
50733;SDS011;36701;51.798;19.474;2023-04-15T14:11:20;7.30;;;3.60;;
50733;SDS011;36701;51.798;19.474;2023-04-15T14:13:46;15.13;;;8.23;;
50733;SDS011;36701;51.798;19.474;2023-04-15T14:16:12;8.15;;;5.15;;
50733;SDS011;36701;51.798;19.474;2023-04-15T14:18:38;8.32;;;4.93;;
50733;SDS011;36701;51.798;19.474;2023-04-15T14:21:04;3.45;;;2.92;;
50733;SDS011;36701;51.798;19.474;2023-04-15T14:23:32;5.15;;;3.60;;
50733;SDS011;36701;51.798;19.474;2023-04-15T14:25:58;5.80;;;3.55;;
50733;SDS011;36701;51.798;19.474;2023-04-15T14:28:24;9.55;;;4.22;;
50733;SDS011;36701;51.798;19.474;2023-04-15T14:30:51;4.75;;;3.78;;
50733;SDS011;36701;51.798;19.474;2023-04-15T14:33:17;6.37;;;4.57;;
50733;SDS011;36701;51.798;19.474;2023-04-15T14:35:43;11.80;;;6.97;;
50733;SDS011;36701;51.798;19.474;2023-04-15T14:38:09;11.30;;;6.18;;
50733;SDS011;36701;51.798;19.474;2023-04-15T14:40:36;9.05;;;5.40;;
50733;SDS011;36701;51.798;19.474;2023-04-15T14:43:02;5.85;;;3.95;;
50733;SDS011;36701;51.798;19.474;2023-04-15T14:45:28;7.53;;;3.72;;
50733;SDS011;36701;51.798;19.474;2023-04-15T14:47:55;7.22;;;4.05;;
50733;SDS011;36701;51.798;19.474;2023-04-15T14:50:21;4.45;;;3.47;;
50733;SDS011;36701;51.798;19.474;2023-04-15T14:52:47;4.40;;;3.10;;
50733;SDS011;36701;51.798;19.474;2023-04-15T14:55:13;5.32;;;3.75;;
50733;SDS011;36701;51.798;19.474;2023-04-15T14:57:40;6.87;;;4.07;;
50733;SDS011;36701;51.798;19.474;2023-04-15T15:00:07;7.65;;;4.03;;
50733;SDS011;36701;51.798;19.474;2023-04-15T15:02:33;7.32;;;3.75;;
50733;SDS011;36701;51.798;19.474;2023-04-15T15:05:01;6.22;;;4.40;;
50733;SDS011;36701;51.798;19.474;2023-04-15T15:07:27;5.53;;;4.10;;
50733;SDS011;36701;51.798;19.474;2023-04-15T15:09:54;5.95;;;3.20;;
50733;SDS011;36701;51.798;19.474;2023-04-15T15:12:20;10.80;;;5.90;;
50733;SDS011;36701;51.798;19.474;2023-04-15T15:14:48;17.75;;;8.00;;
50733;SDS011;36701;51.798;19.474;2023-04-15T15:17:14;16.83;;;6.97;;
50733;SDS011;36701;51.798;19.474;2023-04-15T15:19:40;13.27;;;5.28;;
50733;SDS011;36701;51.798;19.474;2023-04-15T15:22:06;8.15;;;4.68;;
50733;SDS011;36701;51.798;19.474;2023-04-15T15:24:32;7.70;;;3.62;;
50733;SDS011;36701;51.798;19.474;2023-04-15T15:26:59;5.22;;;3.72;;
50733;SDS011;36701;51.798;19.474;2023-04-15T15:29:24;6.62;;;3.75;;
50733;SDS011;36701;51.798;19.474;2023-04-15T15:31:51;8.65;;;5.10;;
50733;SDS011;36701;51.798;19.474;2023-04-15T15:34:17;7.70;;;5.40;;
50733;SDS011;36701;51.798;19.474;2023-04-15T15:36:43;10.27;;;5.37;;
50733;SDS011;36701;51.798;19.474;2023-04-15T15:39:09;9.27;;;6.43;;
50733;SDS011;36701;51.798;19.474;2023-04-15T15:41:35;13.18;;;6.80;;
50733;SDS011;36701;51.798;19.474;2023-04-15T15:44:01;13.30;;;6.30;;
50733;SDS011;36701;51.798;19.474;2023-04-15T15:46:28;11.25;;;6.15;;
50733;SDS011;36701;51.798;19.474;2023-04-15T15:48:56;10.73;;;6.28;;
50733;SDS011;36701;51.798;19.474;2023-04-15T15:51:22;11.38;;;7.12;;
50733;SDS011;36701;51.798;19.474;2023-04-15T15:53:48;14.15;;;8.80;;
50733;SDS011;36701;51.798;19.474;2023-04-15T15:56:14;16.98;;;9.15;;
50733;SDS011;36701;51.798;19.474;2023-04-15T15:58:41;11.55;;;6.95;;
50733;SDS011;36701;51.798;19.474;2023-04-15T16:01:10;19.83;;;7.95;;
50733;SDS011;36701;51.798;19.474;2023-04-15T16:03:36;11.32;;;7.62;;
50733;SDS011;36701;51.798;19.474;2023-04-15T16:06:03;15.38;;;6.78;;
50733;SDS011;36701;51.798;19.474;2023-04-15T16:08:29;14.70;;;8.18;;
50733;SDS011;36701;51.798;19.474;2023-04-15T16:10:56;19.00;;;8.95;;
50733;SDS011;36701;51.798;19.474;2023-04-15T16:13:22;18.95;;;9.25;;
50733;SDS011;36701;51.798;19.474;2023-04-15T16:15:48;15.90;;;9.65;;
50733;SDS011;36701;51.798;19.474;2023-04-15T16:18:17;26.75;;;13.15;;
50733;SDS011;36701;51.798;19.474;2023-04-15T16:20:43;28.58;;;11.23;;
50733;SDS011;36701;51.798;19.474;2023-04-15T16:23:11;23.73;;;9.43;;
50733;SDS011;36701;51.798;19.474;2023-04-15T16:25:38;17.05;;;8.00;;
50733;SDS011;36701;51.798;19.474;2023-04-15T16:28:05;13.25;;;6.62;;
50733;SDS011;36701;51.798;19.474;2023-04-15T16:30:34;20.05;;;8.60;;
50733;SDS011;36701;51.798;19.474;2023-04-15T16:33:00;14.55;;;9.60;;
50733;SDS011;36701;51.798;19.474;2023-04-15T16:35:26;16.58;;;8.05;;
50733;SDS011;36701;51.798;19.474;2023-04-15T16:37:53;13.45;;;8.27;;
50733;SDS011;36701;51.798;19.474;2023-04-15T16:40:19;11.40;;;7.18;;
50733;SDS011;36701;51.798;19.474;2023-04-15T16:42:52;12.00;;;7.30;;
50733;SDS011;36701;51.798;19.474;2023-04-15T16:45:18;13.25;;;7.60;;
50733;SDS011;36701;51.798;19.474;2023-04-15T16:47:44;13.32;;;7.07;;